Time;durP1;ratioP1;P1;durP2;ratioP2;P2;SDS_P1;SDS_P2;PMS_P1;PMS_P2;Temp;Humidity;BMP_temperature;BMP_pressure;BME280_temperature;BME280_humidity;BME280_pressure;Samples;Min_cycle;Max_cycle;Signal;HPM_P1;HPM_P2
2022/01/23 00:01:16;;;;;;;54.80;31.43;;;6.70;99.90;;;;;;5091767;28;20460;-78
2022/01/23 00:03:47;;;;;;;42.77;27.47;;;6.70;99.90;;;;;;5091491;28;20564;-79
2022/01/23 00:06:14;;;;;;;45.33;29.87;;;6.60;99.90;;;;;;5085161;28;20970;-77
2022/01/23 00:08:41;;;;;;;46.30;27.80;;;6.60;99.90;;;;;;5071689;28;20784;-79
2022/01/23 00:11:08;;;;;;;43.77;27.77;;;6.60;99.90;;;;;;5089351;28;20449;-79
2022/01/23 00:17:14;;;;;;;46.30;28.40;;;6.60;99.90;;;;;;5094982;28;20472;-78
2022/01/23 00:19:08;;;;;;;42.90;26.10;;;6.50;99.90;;;;;;5096202;28;20440;-79
2022/01/23 00:21:37;;;;;;;42.27;26.67;;;6.50;99.90;;;;;;5095345;28;21084;-79
2022/01/23 00:32:17;;;;;;;40.50;26.30;;;6.60;99.90;;;;;;5095943;28;21043;-79
2022/01/23 00:34:45;;;;;;;40.60;24.57;;;6.70;99.90;;;;;;5095415;28;20483;-79
2022/01/23 00:37:12;;;;;;;54.80;30.50;;;6.70;99.90;;;;;;5095718;28;20465;-79
2022/01/23 00:39:39;;;;;;;36.00;25.47;;;6.60;99.90;;;;;;5093930;28;20834;-79
2022/01/23 00:42:06;;;;;;;36.47;25.00;;;6.60;99.90;;;;;;5095327;28;20495;-78
2022/01/23 00:44:35;;;;;;;38.10;26.30;;;6.60;99.90;;;;;;5095720;28;20495;-78
2022/01/23 00:47:09;;;;;;;40.00;26.73;;;6.70;99.90;;;;;;5095592;28;20496;-79
2022/01/23 00:49:36;;;;;;;39.30;24.60;;;6.60;99.90;;;;;;5075060;28;20462;-78
2022/01/23 00:52:05;;;;;;;32.17;22.50;;;6.60;99.90;;;;;;5074572;28;20937;-79
2022/01/23 00:54:32;;;;;;;37.73;24.30;;;6.60;99.90;;;;;;5093362;28;20484;-79
2022/01/23 00:56:59;;;;;;;48.43;27.77;;;6.60;99.90;;;;;;5090289;28;20539;-79
2022/01/23 00:59:26;;;;;;;38.37;24.13;;;6.50;99.90;;;;;;5093918;28;20457;-78
2022/01/23 01:01:52;;;;;;;37.43;25.20;;;6.60;99.90;;;;;;5094326;28;20487;-77
2022/01/23 01:04:19;;;;;;;39.67;26.47;;;6.60;99.90;;;;;;5094352;28;20825;-79
2022/01/23 01:06:46;;;;;;;38.67;22.93;;;6.60;99.90;;;;;;5094112;28;20969;-78
2022/01/23 01:09:14;;;;;;;34.17;24.17;;;6.60;99.90;;;;;;5094726;28;20455;-78
2022/01/23 01:14:36;;;;;;;43.27;25.50;;;6.70;99.90;;;;;;5073386;28;20462;-77
2022/01/23 01:17:11;;;;;;;44.70;25.80;;;6.60;99.90;;;;;;5091600;28;20967;-78
2022/01/23 01:30:43;;;;;;;35.03;23.30;;;6.40;99.90;;;;;;5081144;28;20439;-78
2022/01/23 01:33:20;;;;;;;37.10;24.30;;;6.40;99.90;;;;;;5094609;28;20507;-78
2022/01/23 01:35:54;;;;;;;33.87;20.63;;;6.40;99.90;;;;;;5094364;28;20501;-78
2022/01/23 01:38:20;;;;;;;36.97;24.93;;;6.40;99.90;;;;;;5094653;28;20469;-78
2022/01/23 01:40:49;;;;;;;35.83;22.97;;;6.30;99.90;;;;;;5093959;28;20463;-79
2022/01/23 01:43:15;;;;;;;35.60;22.90;;;6.40;99.90;;;;;;5094159;28;20493;-78
2022/01/23 01:45:43;;;;;;;37.23;24.30;;;6.40;99.90;;;;;;5082842;28;20973;-78
2022/01/23 01:48:13;;;;;;;39.73;24.43;;;6.40;99.90;;;;;;5078209;28;20528;-78
2022/01/23 01:50:44;;;;;;;44.20;26.83;;;6.40;99.90;;;;;;5094178;28;20450;-78
2022/01/23 01:53:12;;;;;;;46.90;29.53;;;6.40;99.90;;;;;;5093609;28;20475;-78
2022/01/23 01:55:43;;;;;;;41.10;25.10;;;6.30;99.90;;;;;;5094545;28;20919;-80
2022/01/23 01:58:33;;;;;;;43.27;27.10;;;6.40;99.90;;;;;;5094150;28;20535;-79
2022/01/23 02:01:03;;;;;;;51.50;32.00;;;6.30;99.90;;;;;;5094588;28;20459;-78
2022/01/23 02:08:56;;;;;;;42.17;27.57;;;6.20;99.90;;;;;;5093922;28;20505;-79
2022/01/23 02:11:37;;;;;;;43.47;26.87;;;6.30;99.90;;;;;;5094246;28;20819;-78
2022/01/23 02:14:16;;;;;;;36.90;25.47;;;6.30;99.90;;;;;;5093441;28;20497;-78
2022/01/23 02:17:12;;;;;;;40.40;27.87;;;6.30;99.90;;;;;;5094163;28;20449;-79
2022/01/23 02:22:53;;;;;;;39.53;23.23;;;6.40;99.90;;;;;;5017761;28;20472;-79
2022/01/23 02:50:34;;;;;;;40.13;24.47;;;6.40;99.90;;;;;;5073658;28;20553;-78
2022/01/23 02:50:44;;;;;;;32.83;21.20;;;6.50;99.90;;;;;;5091185;28;20443;-78
2022/01/23 02:53:31;;;;;;;35.93;24.10;;;6.40;99.90;;;;;;5092962;28;20470;-79
2022/01/23 02:56:01;;;;;;;55.17;28.00;;;6.40;99.90;;;;;;5093139;28;20457;-79
2022/01/23 02:58:35;;;;;;;36.03;24.83;;;6.40;99.90;;;;;;5093644;28;20520;-78
2022/01/23 03:01:14;;;;;;;39.47;23.77;;;6.40;99.90;;;;;;5093369;28;20461;-79
2022/01/23 03:03:45;;;;;;;40.93;25.10;;;6.40;99.90;;;;;;5082977;28;20494;-79
2022/01/23 03:06:24;;;;;;;36.63;21.93;;;6.40;99.90;;;;;;5093669;28;20459;-79
2022/01/23 03:09:21;;;;;;;34.63;23.23;;;6.50;99.90;;;;;;5093065;28;20514;-78
2022/01/23 03:12:07;;;;;;;39.43;24.20;;;6.30;99.90;;;;;;5093831;28;20467;-78
2022/01/23 03:14:44;;;;;;;32.93;22.70;;;6.30;99.90;;;;;;5092505;28;20474;-79
2022/01/23 03:25:50;;;;;;;35.37;22.40;;;6.30;99.90;;;;;;5093299;28;20438;-79
2022/01/23 03:28:25;;;;;;;34.87;23.37;;;6.20;99.90;;;;;;5093458;28;20968;-79
2022/01/23 03:31:05;;;;;;;41.50;24.77;;;6.30;99.90;;;;;;5092702;28;20457;-79
2022/01/23 03:33:32;;;;;;;41.27;24.93;;;6.20;99.90;;;;;;5092667;28;21003;-79
2022/01/23 03:35:59;;;;;;;36.40;23.63;;;6.20;99.90;;;;;;5092354;28;20864;-79
2022/01/23 03:38:26;;;;;;;39.53;24.30;;;6.30;99.90;;;;;;5092899;28;20535;-79
2022/01/23 03:40:54;;;;;;;32.97;22.30;;;6.40;99.90;;;;;;5092981;28;20444;-79
2022/01/23 03:43:27;;;;;;;36.93;23.63;;;6.30;99.90;;;;;;5091920;28;20481;-79
2022/01/23 03:46:19;;;;;;;38.73;24.07;;;6.40;99.90;;;;;;5093275;28;20457;-79
2022/01/23 03:51:30;;;;;;;35.80;23.00;;;6.40;99.90;;;;;;5097368;28;20474;-77
2022/01/23 03:53:57;;;;;;;38.10;23.30;;;6.40;99.90;;;;;;5087450;28;21078;-78
2022/01/23 03:56:24;;;;;;;37.27;23.10;;;6.40;99.90;;;;;;5096522;28;20439;-79
2022/01/23 03:58:52;;;;;;;36.60;22.83;;;6.50;99.90;;;;;;5096027;28;20453;-78
2022/01/23 04:01:19;;;;;;;39.27;25.20;;;6.50;99.90;;;;;;5099508;28;21018;-79
2022/01/23 04:03:46;;;;;;;31.53;21.60;;;6.40;99.90;;;;;;5083134;28;20491;-78
2022/01/23 04:06:12;;;;;;;37.40;23.20;;;6.40;99.90;;;;;;5101795;28;20521;-79
2022/01/23 04:08:39;;;;;;;37.07;23.30;;;6.40;99.90;;;;;;5109342;28;20448;-80
2022/01/23 04:11:06;;;;;;;30.67;20.67;;;6.50;99.90;;;;;;5112966;28;20495;-79
2022/01/23 04:13:43;;;;;;;40.60;24.60;;;6.40;99.90;;;;;;5101705;28;20548;-79
2022/01/23 04:16:29;;;;;;;42.53;24.23;;;6.40;99.90;;;;;;5096300;28;20447;-78
2022/01/23 04:19:14;;;;;;;31.77;21.03;;;6.30;99.90;;;;;;5095995;28;20485;-79
2022/01/23 04:33:00;;;;;;;40.70;23.07;;;6.30;99.90;;;;;;5096450;28;20447;-79
2022/01/23 04:45:09;;;;;;;34.40;22.50;;;6.30;99.90;;;;;;5096045;28;20905;-78
2022/01/23 05:00:33;;;;;;;37.17;22.23;;;6.20;99.90;;;;;;5081578;28;20449;-82
2022/01/23 05:05:42;;;;;;;37.77;23.13;;;6.30;99.90;;;;;;5082718;28;20466;-82
2022/01/23 05:08:16;;;;;;;34.60;22.00;;;6.40;99.90;;;;;;5083288;28;20452;-82
2022/01/23 05:10:43;;;;;;;35.67;22.33;;;6.30;99.90;;;;;;5083580;28;20457;-82
2022/01/23 05:13:10;;;;;;;34.10;22.37;;;6.40;99.90;;;;;;5084134;28;20442;-82
2022/01/23 05:15:37;;;;;;;41.97;25.30;;;6.40;99.90;;;;;;5082356;28;20497;-83
2022/01/23 05:18:04;;;;;;;36.83;22.60;;;6.40;99.90;;;;;;5085567;28;20460;-82
2022/01/23 05:20:32;;;;;;;36.33;22.40;;;6.40;99.90;;;;;;5085415;28;20480;-82
2022/01/23 05:23:05;;;;;;;43.23;25.70;;;6.40;99.90;;;;;;5083839;28;20507;-80
2022/01/23 05:25:34;;;;;;;32.07;21.60;;;6.40;99.90;;;;;;5085044;28;20473;-82
2022/01/23 05:28:01;;;;;;;42.63;23.37;;;6.40;99.90;;;;;;5084562;28;20564;-82
2022/01/23 05:30:28;;;;;;;36.07;22.83;;;6.40;99.90;;;;;;5083184;28;20461;-82
2022/01/23 05:32:57;;;;;;;36.23;21.70;;;6.40;99.90;;;;;;5084004;28;20858;-81
2022/01/23 05:35:26;;;;;;;33.83;22.60;;;6.40;99.90;;;;;;5084492;28;20853;-81
2022/01/23 05:37:53;;;;;;;34.33;21.93;;;6.40;99.90;;;;;;5085532;28;20522;-83
2022/01/23 05:40:23;;;;;;;33.30;21.23;;;6.30;99.90;;;;;;5083534;28;20453;-82
2022/01/23 05:42:50;;;;;;;34.40;20.10;;;6.30;99.90;;;;;;5085278;28;20524;-82
2022/01/23 05:45:17;;;;;;;34.47;22.20;;;6.30;99.90;;;;;;5084230;28;20483;-81
2022/01/23 05:47:44;;;;;;;47.00;27.43;;;6.30;99.90;;;;;;5083950;28;20472;-82
2022/01/23 05:50:11;;;;;;;42.70;26.87;;;6.30;99.90;;;;;;5084862;28;20462;-82
2022/01/23 05:52:38;;;;;;;37.07;23.37;;;6.10;99.90;;;;;;5085831;28;20478;-82
2022/01/23 05:55:06;;;;;;;38.27;26.00;;;6.20;99.90;;;;;;5084906;28;20501;-82
2022/01/23 05:57:34;;;;;;;40.23;26.30;;;6.20;99.90;;;;;;5084837;28;20449;-83
2022/01/23 06:00:01;;;;;;;39.80;25.70;;;6.20;99.90;;;;;;5086998;28;20553;-82
2022/01/23 06:02:28;;;;;;;40.73;24.73;;;6.30;99.90;;;;;;5086917;28;20873;-83
2022/01/23 06:04:55;;;;;;;45.33;27.47;;;6.30;99.90;;;;;;5086682;28;21029;-82
2022/01/23 06:07:21;;;;;;;43.27;27.73;;;6.30;99.90;;;;;;5085725;28;20528;-84
2022/01/23 06:09:48;;;;;;;44.40;28.33;;;6.30;99.90;;;;;;5078828;28;20485;-85
2022/01/23 06:12:15;;;;;;;45.47;30.13;;;6.40;99.90;;;;;;5078970;28;20545;-84
2022/01/23 06:14:43;;;;;;;41.77;27.20;;;6.30;99.90;;;;;;5081312;28;20462;-84
2022/01/23 06:17:10;;;;;;;39.63;25.23;;;6.40;99.90;;;;;;5082741;28;20456;-85
2022/01/23 06:19:39;;;;;;;48.00;27.30;;;6.40;99.90;;;;;;5083640;28;20447;-85
2022/01/23 06:22:06;;;;;;;38.73;25.67;;;6.40;99.90;;;;;;5081991;28;20458;-84
2022/01/23 06:24:33;;;;;;;45.40;26.43;;;6.40;99.90;;;;;;5081602;28;20497;-84
2022/01/23 06:27:01;;;;;;;40.90;26.67;;;6.40;99.90;;;;;;5081892;28;20449;-84
2022/01/23 06:29:30;;;;;;;37.27;22.47;;;6.40;99.90;;;;;;5082746;28;20449;-84
2022/01/23 06:32:00;;;;;;;39.47;23.90;;;6.40;99.90;;;;;;5095720;28;20434;-82
2022/01/23 06:34:28;;;;;;;42.40;24.40;;;6.40;99.90;;;;;;5084288;28;20558;-83
2022/01/23 06:36:55;;;;;;;43.50;25.70;;;6.40;99.90;;;;;;5076016;28;20465;-83
2022/01/23 06:39:23;;;;;;;43.80;25.13;;;6.40;99.90;;;;;;5075552;28;20457;-83
2022/01/23 06:41:50;;;;;;;46.77;27.70;;;6.40;99.90;;;;;;5074459;28;20461;-84
2022/01/23 06:44:17;;;;;;;50.13;27.70;;;6.40;99.90;;;;;;5074529;28;20490;-84
2022/01/23 06:46:45;;;;;;;43.10;26.90;;;6.40;99.90;;;;;;5074548;28;20468;-83
2022/01/23 06:49:13;;;;;;;47.77;27.17;;;6.40;99.90;;;;;;5075111;28;20461;-81
2022/01/23 06:51:42;;;;;;;45.03;28.00;;;6.40;99.90;;;;;;5078984;28;20449;-81
2022/01/23 06:54:09;;;;;;;45.27;27.27;;;6.40;99.90;;;;;;5081811;28;20473;-80
2022/01/23 06:56:36;;;;;;;45.40;26.27;;;6.40;99.90;;;;;;5081860;28;20449;-82
2022/01/23 06:59:02;;;;;;;46.53;30.30;;;6.40;99.90;;;;;;5081860;28;20458;-81
2022/01/23 07:01:29;;;;;;;54.03;31.63;;;6.40;99.90;;;;;;5082147;28;20840;-82
2022/01/23 07:03:56;;;;;;;47.97;28.03;;;6.40;99.90;;;;;;5082330;28;20541;-81
2022/01/23 07:06:24;;;;;;;48.17;28.70;;;6.40;99.90;;;;;;5080253;28;20454;-81
2022/01/23 07:08:51;;;;;;;45.67;28.97;;;6.40;99.90;;;;;;5079667;28;20454;-81
2022/01/23 07:11:18;;;;;;;52.20;29.70;;;6.50;99.90;;;;;;5078825;28;20456;-81
2022/01/23 07:13:45;;;;;;;52.40;30.67;;;6.50;99.90;;;;;;5079478;28;20454;-81
2022/01/23 07:16:12;;;;;;;60.07;33.23;;;6.50;99.90;;;;;;5079949;28;20534;-81
2022/01/23 07:18:39;;;;;;;56.70;31.43;;;6.40;99.90;;;;;;5080038;28;20463;-81
2022/01/23 07:21:06;;;;;;;51.20;28.83;;;6.40;99.90;;;;;;5081021;28;20446;-80
2022/01/23 07:23:34;;;;;;;53.73;31.17;;;6.50;99.90;;;;;;5079002;28;20497;-82
2022/01/23 07:26:01;;;;;;;74.67;38.40;;;6.50;99.90;;;;;;5080611;28;21011;-81
2022/01/23 07:28:37;;;;;;;63.90;32.90;;;6.50;99.90;;;;;;5081303;28;20454;-81
2022/01/23 07:31:05;;;;;;;54.73;32.00;;;6.50;99.90;;;;;;5082859;28;20475;-82
2022/01/23 07:33:35;;;;;;;62.93;34.10;;;6.40;99.90;;;;;;5086977;28;20526;-81
2022/01/23 07:36:03;;;;;;;58.63;33.20;;;6.40;99.90;;;;;;5091548;28;21203;-81
2022/01/23 07:38:30;;;;;;;58.17;33.37;;;6.40;99.90;;;;;;5090572;28;20957;-81
2022/01/23 07:40:58;;;;;;;59.10;34.23;;;6.50;99.90;;;;;;5089669;28;20454;-81
2022/01/23 07:43:25;;;;;;;68.93;35.27;;;6.60;99.90;;;;;;5092344;28;20489;-83
2022/01/23 07:45:52;;;;;;;55.03;31.60;;;6.50;99.90;;;;;;5087564;28;20486;-80
2022/01/23 07:48:19;;;;;;;52.63;30.77;;;6.60;99.90;;;;;;5092353;28;20548;-82
2022/01/23 07:50:46;;;;;;;49.73;31.90;;;6.70;99.90;;;;;;5091742;28;20530;-81
2022/01/23 07:53:12;;;;;;;51.43;30.60;;;6.70;99.90;;;;;;5092426;28;20441;-81
2022/01/23 07:55:39;;;;;;;44.13;26.57;;;6.70;99.90;;;;;;5091909;28;20525;-82
2022/01/23 07:58:14;;;;;;;56.03;31.27;;;6.70;99.90;;;;;;5094066;28;20454;-82
2022/01/23 08:00:42;;;;;;;52.90;31.17;;;6.70;99.90;;;;;;5089627;28;20453;-80
2022/01/23 08:03:09;;;;;;;51.47;32.07;;;6.70;99.90;;;;;;5092030;28;20469;-80
2022/01/23 08:05:36;;;;;;;53.30;32.17;;;6.70;99.90;;;;;;5091405;28;20476;-81
2022/01/23 08:08:04;;;;;;;54.73;29.67;;;6.80;99.90;;;;;;5095116;28;20536;-82
2022/01/23 08:10:31;;;;;;;57.37;30.83;;;6.80;99.90;;;;;;5093840;28;20448;-82
2022/01/23 08:12:58;;;;;;;55.10;32.10;;;6.70;99.90;;;;;;5091618;28;20443;-81
2022/01/23 08:15:26;;;;;;;58.50;32.97;;;6.80;99.90;;;;;;5095668;28;20462;-83
2022/01/23 08:17:53;;;;;;;52.50;29.77;;;6.80;99.90;;;;;;5091680;28;20530;-82
2022/01/23 08:20:21;;;;;;;57.07;31.53;;;6.80;99.90;;;;;;5095967;28;20501;-81
2022/01/23 08:22:47;;;;;;;52.10;29.53;;;6.90;99.90;;;;;;5091941;28;20443;-83
2022/01/23 08:25:14;;;;;;;58.97;35.97;;;6.90;99.90;;;;;;5084314;28;20489;-83
2022/01/23 08:27:41;;;;;;;57.10;32.30;;;7.00;99.90;;;;;;5088211;28;20479;-80
2022/01/23 08:30:09;;;;;;;62.50;33.57;;;7.00;99.90;;;;;;5085190;28;20448;-83
2022/01/23 08:32:37;;;;;;;56.20;33.50;;;7.00;99.90;;;;;;5084223;28;20489;-83
2022/01/23 08:35:05;;;;;;;53.70;30.90;;;7.10;99.90;;;;;;5090892;28;20564;-83
2022/01/23 08:37:32;;;;;;;56.17;32.30;;;7.10;99.90;;;;;;5089567;28;20446;-83
2022/01/23 08:40:00;;;;;;;55.83;34.80;;;7.20;99.90;;;;;;5095351;28;20430;-81
2022/01/23 08:42:27;;;;;;;52.83;31.77;;;7.20;99.90;;;;;;5111415;28;20445;-82
2022/01/23 08:44:54;;;;;;;51.23;31.93;;;7.20;99.90;;;;;;5089370;28;20483;-82
2022/01/23 08:47:22;;;;;;;57.27;33.80;;;7.20;99.90;;;;;;5087772;28;20500;-81
2022/01/23 08:49:51;;;;;;;52.00;31.73;;;7.20;99.90;;;;;;5077219;28;20464;-82
2022/01/23 08:52:20;;;;;;;54.30;31.83;;;7.20;99.90;;;;;;5076718;28;20485;-81
2022/01/23 08:54:49;;;;;;;60.50;32.97;;;7.30;99.90;;;;;;5075935;28;20546;-82
2022/01/23 08:57:20;;;;;;;58.30;31.17;;;7.40;99.90;;;;;;5076359;28;20498;-82
2022/01/23 08:59:48;;;;;;;56.03;33.23;;;7.40;99.90;;;;;;5078253;28;20465;-83
2022/01/23 09:02:15;;;;;;;59.97;35.27;;;7.40;99.90;;;;;;5076798;28;20821;-82
2022/01/23 09:04:42;;;;;;;58.73;37.67;;;7.40;99.90;;;;;;5075902;28;20499;-83
2022/01/23 09:07:10;;;;;;;53.03;31.90;;;7.40;99.90;;;;;;5075694;28;20857;-82
2022/01/23 09:09:38;;;;;;;60.67;33.20;;;7.40;99.90;;;;;;5075824;28;20962;-81
2022/01/23 09:12:10;;;;;;;58.03;31.80;;;7.30;99.90;;;;;;5076338;28;20450;-82
2022/01/23 09:14:37;;;;;;;50.07;30.87;;;7.40;99.90;;;;;;5075871;28;20565;-83
2022/01/23 09:17:06;;;;;;;53.83;29.73;;;7.50;99.90;;;;;;5076362;28;20458;-82
2022/01/23 09:19:33;;;;;;;47.07;29.27;;;7.50;99.90;;;;;;5076714;28;20466;-82
2022/01/23 09:22:01;;;;;;;48.57;27.00;;;7.50;99.90;;;;;;5076584;28;20837;-82
2022/01/23 09:24:31;;;;;;;54.17;30.53;;;7.50;99.90;;;;;;5076615;28;20574;-82
2022/01/23 09:27:04;;;;;;;45.67;28.90;;;7.50;99.90;;;;;;5076223;28;20462;-82
2022/01/23 09:29:35;;;;;;;51.33;30.73;;;7.70;99.90;;;;;;5076065;28;20963;-82
2022/01/23 09:32:04;;;;;;;57.93;32.90;;;7.80;99.90;;;;;;5075736;28;20504;-82
2022/01/23 09:34:32;;;;;;;47.30;28.10;;;7.80;99.90;;;;;;5075655;28;21010;-82
2022/01/23 09:37:01;;;;;;;48.90;28.87;;;7.90;99.90;;;;;;5074724;28;20538;-83
2022/01/23 09:39:30;;;;;;;46.33;26.70;;;7.90;99.90;;;;;;5074619;28;20951;-82
2022/01/23 09:42:00;;;;;;;47.90;27.13;;;8.00;99.90;;;;;;5074115;28;20464;-84
2022/01/23 09:44:31;;;;;;;41.30;26.43;;;8.00;99.90;;;;;;5071035;28;20582;-83
2022/01/23 09:46:58;;;;;;;49.63;27.30;;;8.00;99.90;;;;;;5073651;28;20451;-82
2022/01/23 09:49:26;;;;;;;46.03;26.40;;;8.00;99.90;;;;;;5058572;28;20463;-83
2022/01/23 09:51:55;;;;;;;49.77;27.77;;;8.10;99.90;;;;;;5071385;28;20451;-83
2022/01/23 09:54:23;;;;;;;47.70;27.70;;;8.10;99.90;;;;;;5076926;28;20482;-83
2022/01/23 09:56:51;;;;;;;45.67;24.87;;;8.10;99.90;;;;;;5078474;28;20819;-82
2022/01/23 09:59:18;;;;;;;40.83;26.13;;;8.10;99.90;;;;;;5078715;28;20447;-83
2022/01/23 10:01:53;;;;;;;38.77;25.47;;;8.10;99.90;;;;;;5090122;28;20452;-83
2022/01/23 10:04:20;;;;;;;43.90;24.20;;;8.10;99.90;;;;;;5098546;28;20500;-83
2022/01/23 10:06:47;;;;;;;36.30;24.10;;;8.20;99.90;;;;;;5086723;28;20451;-83
2022/01/23 10:09:15;;;;;;;42.67;23.87;;;8.20;99.90;;;;;;5078405;28;20457;-83
2022/01/23 10:11:43;;;;;;;34.27;23.17;;;8.20;99.90;;;;;;5078245;28;20447;-83
2022/01/23 10:14:11;;;;;;;35.30;22.53;;;8.30;99.90;;;;;;5079033;28;20459;-83
2022/01/23 10:16:39;;;;;;;41.33;24.30;;;8.40;99.90;;;;;;5078950;28;20459;-83
2022/01/23 10:19:08;;;;;;;39.10;24.17;;;8.30;99.90;;;;;;5079098;28;20473;-83
2022/01/23 10:21:38;;;;;;;33.63;22.40;;;8.40;99.90;;;;;;5078247;28;20455;-84
2022/01/23 10:24:05;;;;;;;35.83;23.43;;;8.40;99.90;;;;;;5079339;28;20473;-82
2022/01/23 10:26:47;;;;;;;41.53;26.03;;;8.30;99.90;;;;;;5082598;28;20459;-79
2022/01/23 10:29:19;;;;;;;31.77;21.50;;;8.10;99.90;;;;;;5081102;28;20944;-81
2022/01/23 10:32:04;;;;;;;38.53;23.07;;;8.30;99.90;;;;;;5078738;28;20434;-81
2022/01/23 10:34:43;;;;;;;37.73;25.00;;;8.40;99.90;;;;;;5078488;28;20467;-82
2022/01/23 10:37:10;;;;;;;40.80;24.20;;;8.50;99.90;;;;;;5078747;28;20465;-81
2022/01/23 10:39:41;;;;;;;37.70;22.07;;;8.60;99.90;;;;;;5079642;28;20527;-82
2022/01/23 10:42:33;;;;;;;37.90;23.47;;;8.60;99.90;;;;;;5078706;28;20451;-82
2022/01/23 10:47:52;;;;;;;36.37;21.83;;;8.90;99.90;;;;;;4997200;28;20935;-79
2022/01/23 10:50:23;;;;;;;42.77;24.30;;;8.80;99.90;;;;;;4997256;28;20521;-80
2022/01/23 10:52:51;;;;;;;38.83;25.03;;;9.00;99.90;;;;;;4997510;28;20431;-79
2022/01/23 10:55:27;;;;;;;37.50;24.13;;;9.10;99.90;;;;;;4988871;28;20471;-79
2022/01/23 10:57:56;;;;;;;35.13;22.93;;;9.10;99.90;;;;;;4976150;28;20455;-80
2022/01/23 11:00:27;;;;;;;42.60;24.37;;;9.20;99.90;;;;;;4977108;28;20524;-80
2022/01/23 11:02:58;;;;;;;35.27;23.43;;;9.10;99.90;;;;;;4985298;28;20451;-80
2022/01/23 11:06:16;;;;;;;39.10;23.97;;;8.90;99.90;;;;;;4985493;28;20872;-81
2022/01/23 11:08:54;;;;;;;33.80;22.50;;;8.80;99.90;;;;;;4964210;28;20463;-78
2022/01/23 11:11:24;;;;;;;38.57;22.97;;;8.80;99.90;;;;;;4988623;28;20487;-81
2022/01/23 11:19:25;;;;;;;35.60;22.00;;;9.10;99.90;;;;;;4982164;28;20843;-80
2022/01/23 11:21:53;;;;;;;39.87;23.83;;;8.90;99.90;;;;;;4977295;28;20458;-81
2022/01/23 11:24:21;;;;;;;38.30;22.90;;;9.00;99.90;;;;;;4977224;28;20512;-81
2022/01/23 11:26:50;;;;;;;34.00;21.43;;;9.10;99.90;;;;;;4977599;28;20451;-80
2022/01/23 11:29:20;;;;;;;33.03;21.00;;;9.10;99.90;;;;;;4977679;28;20971;-79
2022/01/23 11:31:48;;;;;;;36.87;23.90;;;9.20;99.90;;;;;;4977871;28;20451;-80
2022/01/23 11:34:16;;;;;;;33.63;20.57;;;9.20;99.90;;;;;;4977090;28;20459;-80
2022/01/23 11:36:43;;;;;;;30.90;20.50;;;9.40;99.90;;;;;;4978006;28;20548;-80
2022/01/23 11:39:14;;;;;;;31.40;20.30;;;9.50;99.90;;;;;;4977573;28;20465;-81
2022/01/23 11:50:45;;;;;;;25.80;17.03;;;9.70;99.90;;;;;;4977786;28;20419;-81
2022/01/23 11:53:46;;;;;;;27.67;17.93;;;9.70;99.90;;;;;;4993487;28;20789;-81
2022/01/23 11:56:37;;;;;;;26.53;17.03;;;9.80;99.90;;;;;;4996112;28;20592;-81
2022/01/23 11:59:17;;;;;;;23.30;16.10;;;9.70;99.90;;;;;;4978090;28;20452;-80
2022/01/23 12:01:45;;;;;;;27.00;17.47;;;9.70;99.90;;;;;;4977473;28;20449;-82
2022/01/23 12:04:19;;;;;;;28.77;17.93;;;9.80;99.90;;;;;;4977683;28;20538;-81
2022/01/23 12:07:19;;;;;;;26.43;17.30;;;9.80;99.90;;;;;;4977384;28;20583;-81
2022/01/23 12:10:15;;;;;;;29.20;18.40;;;10.00;99.90;;;;;;4981243;28;20428;-81
2022/01/23 12:12:45;;;;;;;25.37;16.40;;;10.20;99.90;;;;;;4981935;28;20455;-81
2022/01/23 12:18:14;;;;;;;22.50;14.27;;;9.90;99.90;;;;;;4982285;28;20430;-80
2022/01/23 12:20:44;;;;;;;26.10;17.80;;;9.80;99.90;;;;;;4981832;28;20538;-80
2022/01/23 12:23:11;;;;;;;25.50;15.80;;;9.90;99.90;;;;;;4980881;28;20478;-82
2022/01/23 12:25:43;;;;;;;25.03;15.63;;;9.80;99.90;;;;;;4981345;28;20589;-82
2022/01/23 12:28:21;;;;;;;26.00;17.33;;;9.80;99.90;;;;;;4980715;28;20463;-80
2022/01/23 12:30:53;;;;;;;23.77;15.60;;;9.90;99.90;;;;;;4979224;28;20975;-80
2022/01/23 12:33:33;;;;;;;28.43;16.07;;;10.10;99.90;;;;;;4981849;28;20925;-79
2022/01/23 12:36:06;;;;;;;23.87;16.47;;;10.40;99.90;;;;;;4981418;28;20898;-79
2022/01/23 12:38:40;;;;;;;19.40;14.03;;;10.10;99.90;;;;;;4982456;28;20532;-83
2022/01/23 12:41:25;;;;;;;22.20;15.83;;;10.30;99.90;;;;;;4980285;28;20475;-84
2022/01/23 12:43:55;;;;;;;24.43;15.30;;;10.40;99.90;;;;;;4980039;28;21034;-83
2022/01/23 12:46:32;;;;;;;24.07;14.70;;;9.70;99.90;;;;;;4979107;28;20518;-83
2022/01/23 12:49:17;;;;;;;24.10;15.43;;;9.90;99.90;;;;;;4986136;28;20481;-84
2022/01/23 12:51:46;;;;;;;24.23;14.90;;;10.50;99.90;;;;;;4988675;28;20471;-83
2022/01/23 12:54:31;;;;;;;22.03;14.77;;;10.70;99.90;;;;;;4979822;28;20460;-83
2022/01/23 12:57:08;;;;;;;18.70;13.33;;;10.80;99.90;;;;;;4979973;28;20457;-83
2022/01/23 12:59:37;;;;;;;21.20;14.27;;;11.10;99.90;;;;;;4980748;28;20464;-84
2022/01/23 13:02:12;;;;;;;22.77;15.47;;;11.40;99.90;;;;;;4979496;28;20464;-83
2022/01/23 13:04:43;;;;;;;24.90;15.70;;;11.60;99.90;;;;;;4978267;28;20500;-83
2022/01/23 13:07:21;;;;;;;25.43;15.50;;;11.60;99.90;;;;;;4979131;28;20462;-83
2022/01/23 13:10:00;;;;;;;24.53;16.10;;;11.80;99.90;;;;;;4980403;28;20560;-84
2022/01/23 13:12:48;;;;;;;21.60;15.47;;;11.90;99.90;;;;;;4980614;28;20456;-83
2022/01/23 13:18:09;;;;;;;22.47;14.90;;;12.40;99.90;;;;;;4966046;28;20454;-82
2022/01/23 13:26:57;;;;;;;23.63;16.10;;;12.60;99.90;;;;;;4979047;28;20540;-83
2022/01/23 13:32:13;;;;;;;28.23;18.60;;;11.60;99.90;;;;;;4988279;28;20458;-82
2022/01/23 13:34:42;;;;;;;26.63;17.20;;;10.70;99.90;;;;;;4990155;28;20540;-82
2022/01/23 13:37:11;;;;;;;23.83;15.23;;;10.30;99.90;;;;;;4981407;28;20986;-84
2022/01/23 13:39:47;;;;;;;25.97;17.47;;;10.00;99.90;;;;;;4978493;28;20994;-82
2022/01/23 13:42:30;;;;;;;26.23;17.73;;;9.20;99.90;;;;;;4978670;28;20466;-83
2022/01/23 13:48:29;;;;;;;29.17;17.67;;;9.00;99.90;;;;;;4984091;28;20448;-83
2022/01/23 13:59:26;;;;;;;26.67;17.37;;;8.70;99.90;;;;;;4973610;28;20522;-83
2022/01/23 14:02:07;;;;;;;25.30;17.87;;;8.50;99.90;;;;;;5000320;28;20948;-83
2022/01/23 14:04:39;;;;;;;33.00;16.93;;;8.60;99.90;;;;;;4995770;28;20461;-83
2022/01/23 14:07:07;;;;;;;23.93;15.53;;;8.70;99.90;;;;;;4998769;28;20609;-82
2022/01/23 14:09:38;;;;;;;24.87;16.30;;;8.60;99.90;;;;;;4997778;28;20503;-82
2022/01/23 14:12:10;;;;;;;30.43;18.10;;;8.60;99.90;;;;;;4996641;28;20838;-83
2022/01/23 14:14:54;;;;;;;26.67;16.90;;;8.50;99.90;;;;;;4990966;28;20495;-83
2022/01/23 14:17:35;;;;;;;27.60;15.77;;;8.40;99.90;;;;;;4989997;28;20541;-82
2022/01/23 14:20:06;;;;;;;27.63;17.40;;;8.50;99.90;;;;;;4980354;28;20535;-82
2022/01/23 14:22:35;;;;;;;29.40;20.47;;;8.60;99.90;;;;;;4980398;28;20439;-82
2022/01/23 14:25:21;;;;;;;25.47;17.53;;;8.50;99.90;;;;;;4980297;28;20516;-82
2022/01/23 14:28:07;;;;;;;26.43;16.10;;;8.30;99.90;;;;;;4987408;28;20467;-82
2022/01/23 14:30:42;;;;;;;22.90;15.07;;;8.50;99.90;;;;;;4990167;28;20431;-82
2022/01/23 14:33:16;;;;;;;24.30;16.60;;;8.40;99.90;;;;;;4988361;28;20497;-83
2022/01/23 14:35:44;;;;;;;26.83;17.77;;;8.50;99.90;;;;;;5003767;28;20471;-81
2022/01/23 14:38:13;;;;;;;27.77;18.20;;;8.40;99.90;;;;;;4992194;28;20490;-82
2022/01/23 14:40:53;;;;;;;25.10;16.60;;;8.50;99.90;;;;;;4984635;28;20459;-82
2022/01/23 14:43:22;;;;;;;30.43;18.50;;;8.50;99.90;;;;;;4991493;28;20483;-82
2022/01/23 14:45:50;;;;;;;24.70;17.00;;;8.50;99.90;;;;;;4986256;28;20526;-84
2022/01/23 14:48:18;;;;;;;31.50;19.57;;;8.50;99.90;;;;;;4979799;28;20478;-82
2022/01/23 14:50:50;;;;;;;28.63;19.67;;;8.40;99.90;;;;;;4983449;28;20515;-83
2022/01/23 14:53:19;;;;;;;33.43;20.40;;;8.30;99.90;;;;;;4988723;28;20460;-83
2022/01/23 14:55:51;;;;;;;28.03;18.10;;;8.20;99.90;;;;;;4986153;28;20467;-83
2022/01/23 14:58:20;;;;;;;26.47;17.67;;;8.10;99.90;;;;;;4978962;28;21105;-82
2022/01/23 15:00:49;;;;;;;24.53;17.03;;;8.10;99.90;;;;;;4979725;28;20480;-83
2022/01/23 15:03:17;;;;;;;25.37;17.00;;;8.10;99.90;;;;;;4984327;28;20544;-83
2022/01/23 15:05:44;;;;;;;26.97;17.37;;;8.20;99.90;;;;;;4978818;28;20578;-82
2022/01/23 15:08:13;;;;;;;26.83;17.67;;;8.20;99.90;;;;;;4979278;28;20543;-83
2022/01/23 15:10:42;;;;;;;21.77;15.10;;;8.20;99.90;;;;;;4978957;28;20911;-82
2022/01/23 15:13:12;;;;;;;25.70;17.37;;;8.20;99.90;;;;;;4994367;28;20485;-83
2022/01/23 15:15:39;;;;;;;23.70;15.80;;;8.20;99.90;;;;;;4995546;28;20566;-83
2022/01/23 15:18:09;;;;;;;22.87;15.67;;;8.20;99.90;;;;;;4982413;28;20451;-83
2022/01/23 15:20:37;;;;;;;26.80;18.43;;;8.20;99.90;;;;;;4981360;28;20464;-84
2022/01/23 15:23:05;;;;;;;35.07;20.43;;;8.20;99.90;;;;;;5000910;28;20468;-83